sensor_id;sensor_type;location;lat;lon;timestamp;temperature;humidity
52058;DHT22;38063;53.210;6.504;2023-04-25T00:00:16;6.40;99.90
52058;DHT22;38063;53.210;6.504;2023-04-25T00:02:42;6.50;99.90
52058;DHT22;38063;53.210;6.504;2023-04-25T00:05:08;6.40;99.90
52058;DHT22;38063;53.210;6.504;2023-04-25T00:07:34;6.40;99.90
52058;DHT22;38063;53.210;6.504;2023-04-25T00:10:00;6.40;99.90
52058;DHT22;38063;53.210;6.504;2023-04-25T00:12:26;6.40;99.90
52058;DHT22;38063;53.210;6.504;2023-04-25T00:14:54;6.30;99.90
52058;DHT22;38063;53.210;6.504;2023-04-25T00:17:23;6.30;99.90
52058;DHT22;38063;53.210;6.504;2023-04-25T00:19:50;6.30;99.90
52058;DHT22;38063;53.210;6.504;2023-04-25T00:22:16;6.30;99.90
52058;DHT22;38063;53.210;6.504;2023-04-25T00:24:43;6.30;99.90
52058;DHT22;38063;53.210;6.504;2023-04-25T00:27:08;6.20;99.90
52058;DHT22;38063;53.210;6.504;2023-04-25T00:29:34;6.30;99.90
52058;DHT22;38063;53.210;6.504;2023-04-25T00:32:00;6.20;99.90
52058;DHT22;38063;53.210;6.504;2023-04-25T00:34:26;6.20;99.90
52058;DHT22;38063;53.210;6.504;2023-04-25T00:36:52;6.20;99.90
52058;DHT22;38063;53.210;6.504;2023-04-25T00:39:17;6.20;99.90
52058;DHT22;38063;53.210;6.504;2023-04-25T00:41:44;6.20;99.90
52058;DHT22;38063;53.210;6.504;2023-04-25T00:44:11;6.20;99.90
52058;DHT22;38063;53.210;6.504;2023-04-25T00:46:38;6.20;99.90
52058;DHT22;38063;53.210;6.504;2023-04-25T00:49:05;6.20;99.90
52058;DHT22;38063;53.210;6.504;2023-04-25T00:51:30;6.10;99.90
52058;DHT22;38063;53.210;6.504;2023-04-25T00:53:58;6.20;99.90
52058;DHT22;38063;53.210;6.504;2023-04-25T00:56:24;6.30;99.90
52058;DHT22;38063;53.210;6.504;2023-04-25T00:58:53;6.30;99.90
52058;DHT22;38063;53.210;6.504;2023-04-25T01:01:21;6.10;99.90
52058;DHT22;38063;53.210;6.504;2023-04-25T01:03:47;6.10;99.90
52058;DHT22;38063;53.210;6.504;2023-04-25T01:06:17;6.10;99.90
52058;DHT22;38063;53.210;6.504;2023-04-25T01:08:43;6.10;99.90
52058;DHT22;38063;53.210;6.504;2023-04-25T01:11:08;6.10;99.90
52058;DHT22;38063;53.210;6.504;2023-04-25T01:13:34;6.60;99.90
52058;DHT22;38063;53.210;6.504;2023-04-25T01:16:01;6.10;99.90
52058;DHT22;38063;53.210;6.504;2023-04-25T01:18:27;6.10;99.90
52058;DHT22;38063;53.210;6.504;2023-04-25T01:20:53;6.20;99.90
52058;DHT22;38063;53.210;6.504;2023-04-25T01:23:20;6.20;99.90
52058;DHT22;38063;53.210;6.504;2023-04-25T01:25:47;6.10;99.90
52058;DHT22;38063;53.210;6.504;2023-04-25T01:28:13;6.10;99.90
52058;DHT22;38063;53.210;6.504;2023-04-25T01:30:39;6.10;99.90
52058;DHT22;38063;53.210;6.504;2023-04-25T01:33:07;6.10;99.90
52058;DHT22;38063;53.210;6.504;2023-04-25T01:35:33;6.10;99.90
52058;DHT22;38063;53.210;6.504;2023-04-25T01:37:59;6.10;99.90
52058;DHT22;38063;53.210;6.504;2023-04-25T01:40:26;6.00;99.90
52058;DHT22;38063;53.210;6.504;2023-04-25T01:42:52;6.00;99.90
52058;DHT22;38063;53.210;6.504;2023-04-25T01:45:18;6.00;99.90
52058;DHT22;38063;53.210;6.504;2023-04-25T01:47:44;6.10;99.90
52058;DHT22;38063;53.210;6.504;2023-04-25T01:50:14;6.00;99.90
52058;DHT22;38063;53.210;6.504;2023-04-25T01:52:40;6.00;99.90
52058;DHT22;38063;53.210;6.504;2023-04-25T01:55:06;6.00;99.90
52058;DHT22;38063;53.210;6.504;2023-04-25T01:57:32;6.00;99.90
52058;DHT22;38063;53.210;6.504;2023-04-25T02:00:00;5.90;99.90
52058;DHT22;38063;53.210;6.504;2023-04-25T02:02:26;5.90;99.90
52058;DHT22;38063;53.210;6.504;2023-04-25T02:04:52;5.90;99.90
52058;DHT22;38063;53.210;6.504;2023-04-25T02:07:17;5.90;99.90
52058;DHT22;38063;53.210;6.504;2023-04-25T02:09:43;5.90;99.90
52058;DHT22;38063;53.210;6.504;2023-04-25T02:12:10;5.80;99.90
52058;DHT22;38063;53.210;6.504;2023-04-25T02:14:35;5.80;99.90
52058;DHT22;38063;53.210;6.504;2023-04-25T02:17:01;5.80;99.90
52058;DHT22;38063;53.210;6.504;2023-04-25T02:19:27;5.80;99.90
52058;DHT22;38063;53.210;6.504;2023-04-25T02:21:53;5.80;99.90
52058;DHT22;38063;53.210;6.504;2023-04-25T02:24:18;5.70;99.90
52058;DHT22;38063;53.210;6.504;2023-04-25T02:26:44;5.80;99.90
52058;DHT22;38063;53.210;6.504;2023-04-25T02:29:12;5.70;99.90
52058;DHT22;38063;53.210;6.504;2023-04-25T02:31:38;5.70;99.90
52058;DHT22;38063;53.210;6.504;2023-04-25T02:34:03;5.70;99.90
52058;DHT22;38063;53.210;6.504;2023-04-25T02:36:30;5.70;99.90
52058;DHT22;38063;53.210;6.504;2023-04-25T02:38:59;5.60;99.90
52058;DHT22;38063;53.210;6.504;2023-04-25T02:41:25;5.60;99.90
52058;DHT22;38063;53.210;6.504;2023-04-25T02:43:51;5.60;99.90
52058;DHT22;38063;53.210;6.504;2023-04-25T02:46:17;5.60;99.90
52058;DHT22;38063;53.210;6.504;2023-04-25T02:48:42;5.60;99.90
52058;DHT22;38063;53.210;6.504;2023-04-25T02:51:09;5.50;99.90
52058;DHT22;38063;53.210;6.504;2023-04-25T02:53:34;5.50;99.90
52058;DHT22;38063;53.210;6.504;2023-04-25T02:56:00;5.40;99.90
52058;DHT22;38063;53.210;6.504;2023-04-25T02:58:26;5.50;99.90
52058;DHT22;38063;53.210;6.504;2023-04-25T03:00:51;5.50;99.90
52058;DHT22;38063;53.210;6.504;2023-04-25T03:03:17;5.50;99.90
52058;DHT22;38063;53.210;6.504;2023-04-25T03:05:43;5.50;99.90
52058;DHT22;38063;53.210;6.504;2023-04-25T03:08:10;5.50;99.90
52058;DHT22;38063;53.210;6.504;2023-04-25T03:10:35;6.10;99.90
52058;DHT22;38063;53.210;6.504;2023-04-25T03:13:01;5.50;99.90
52058;DHT22;38063;53.210;6.504;2023-04-25T03:15:26;5.50;99.90
52058;DHT22;38063;53.210;6.504;2023-04-25T03:17:52;5.40;99.90
52058;DHT22;38063;53.210;6.504;2023-04-25T03:20:18;5.40;99.90
52058;DHT22;38063;53.210;6.504;2023-04-25T03:22:43;5.40;99.90
52058;DHT22;38063;53.210;6.504;2023-04-25T03:25:10;5.40;99.90
52058;DHT22;38063;53.210;6.504;2023-04-25T03:27:35;5.30;99.90
52058;DHT22;38063;53.210;6.504;2023-04-25T03:30:01;5.30;99.90
52058;DHT22;38063;53.210;6.504;2023-04-25T03:32:27;5.30;99.90
52058;DHT22;38063;53.210;6.504;2023-04-25T03:34:52;5.20;99.90
52058;DHT22;38063;53.210;6.504;2023-04-25T03:37:18;5.20;99.90
52058;DHT22;38063;53.210;6.504;2023-04-25T03:39:43;5.20;99.90
52058;DHT22;38063;53.210;6.504;2023-04-25T03:42:09;5.10;99.90
52058;DHT22;38063;53.210;6.504;2023-04-25T03:44:35;5.10;99.90
52058;DHT22;38063;53.210;6.504;2023-04-25T03:47:00;5.00;99.90
52058;DHT22;38063;53.210;6.504;2023-04-25T03:49:26;5.00;99.90
52058;DHT22;38063;53.210;6.504;2023-04-25T03:51:52;5.00;99.90
52058;DHT22;38063;53.210;6.504;2023-04-25T03:54:17;5.00;99.90
52058;DHT22;38063;53.210;6.504;2023-04-25T03:56:43;4.90;99.90
52058;DHT22;38063;53.210;6.504;2023-04-25T03:59:09;4.90;99.90
52058;DHT22;38063;53.210;6.504;2023-04-25T04:01:34;4.90;99.90
52058;DHT22;38063;53.210;6.504;2023-04-25T04:04:00;4.80;99.90
52058;DHT22;38063;53.210;6.504;2023-04-25T04:06:26;4.80;99.90
52058;DHT22;38063;53.210;6.504;2023-04-25T04:08:52;4.80;99.90
52058;DHT22;38063;53.210;6.504;2023-04-25T04:11:17;4.80;99.90
52058;DHT22;38063;53.210;6.504;2023-04-25T04:13:43;5.20;99.90
52058;DHT22;38063;53.210;6.504;2023-04-25T04:16:09;4.70;99.90
52058;DHT22;38063;53.210;6.504;2023-04-25T04:18:35;4.70;99.90
52058;DHT22;38063;53.210;6.504;2023-04-25T04:21:01;4.60;99.90
52058;DHT22;38063;53.210;6.504;2023-04-25T04:23:28;4.60;99.90
52058;DHT22;38063;53.210;6.504;2023-04-25T04:25:54;4.50;99.90
52058;DHT22;38063;53.210;6.504;2023-04-25T04:28:20;4.50;99.90
52058;DHT22;38063;53.210;6.504;2023-04-25T04:30:47;4.40;99.90
52058;DHT22;38063;53.210;6.504;2023-04-25T04:33:13;4.40;99.90
52058;DHT22;38063;53.210;6.504;2023-04-25T04:35:41;4.30;99.90
52058;DHT22;38063;53.210;6.504;2023-04-25T04:38:07;4.30;99.90
52058;DHT22;38063;53.210;6.504;2023-04-25T04:40:32;4.30;99.90
52058;DHT22;38063;53.210;6.504;2023-04-25T04:42:58;4.30;99.90
52058;DHT22;38063;53.210;6.504;2023-04-25T04:45:24;4.20;99.90
52058;DHT22;38063;53.210;6.504;2023-04-25T04:47:50;4.20;99.90
52058;DHT22;38063;53.210;6.504;2023-04-25T04:50:16;4.20;99.90
52058;DHT22;38063;53.210;6.504;2023-04-25T04:52:42;4.20;99.90
52058;DHT22;38063;53.210;6.504;2023-04-25T04:55:08;4.20;99.90
52058;DHT22;38063;53.210;6.504;2023-04-25T04:57:34;4.20;99.90
52058;DHT22;38063;53.210;6.504;2023-04-25T05:00:00;4.30;99.90
52058;DHT22;38063;53.210;6.504;2023-04-25T05:02:26;4.80;99.90
52058;DHT22;38063;53.210;6.504;2023-04-25T05:04:52;4.30;99.90
52058;DHT22;38063;53.210;6.504;2023-04-25T05:07:18;4.40;99.90
52058;DHT22;38063;53.210;6.504;2023-04-25T05:09:44;4.40;99.90
52058;DHT22;38063;53.210;6.504;2023-04-25T05:12:10;4.40;99.90
52058;DHT22;38063;53.210;6.504;2023-04-25T05:14:36;4.40;99.90
52058;DHT22;38063;53.210;6.504;2023-04-25T05:17:01;4.30;99.90
52058;DHT22;38063;53.210;6.504;2023-04-25T05:19:30;4.30;99.90
52058;DHT22;38063;53.210;6.504;2023-04-25T05:21:56;4.30;99.90
52058;DHT22;38063;53.210;6.504;2023-04-25T05:24:21;4.30;99.90
52058;DHT22;38063;53.210;6.504;2023-04-25T05:26:47;4.30;99.90
52058;DHT22;38063;53.210;6.504;2023-04-25T05:29:12;4.20;99.90
52058;DHT22;38063;53.210;6.504;2023-04-25T05:31:38;4.20;99.90
52058;DHT22;38063;53.210;6.504;2023-04-25T05:34:04;4.20;99.90
52058;DHT22;38063;53.210;6.504;2023-04-25T05:36:29;4.20;99.90
52058;DHT22;38063;53.210;6.504;2023-04-25T05:38:56;4.30;99.90
52058;DHT22;38063;53.210;6.504;2023-04-25T05:41:22;4.20;99.90
52058;DHT22;38063;53.210;6.504;2023-04-25T05:43:47;4.60;99.90
52058;DHT22;38063;53.210;6.504;2023-04-25T05:46:15;4.20;99.90
52058;DHT22;38063;53.210;6.504;2023-04-25T05:48:42;4.30;99.90
52058;DHT22;38063;53.210;6.504;2023-04-25T05:51:09;4.30;99.90
52058;DHT22;38063;53.210;6.504;2023-04-25T05:53:35;4.40;99.90
52058;DHT22;38063;53.210;6.504;2023-04-25T05:56:01;4.50;99.90
52058;DHT22;38063;53.210;6.504;2023-04-25T05:58:26;4.60;99.90
52058;DHT22;38063;53.210;6.504;2023-04-25T06:00:52;4.60;99.90
52058;DHT22;38063;53.210;6.504;2023-04-25T06:03:18;4.70;99.90
52058;DHT22;38063;53.210;6.504;2023-04-25T06:05:43;4.80;99.90
52058;DHT22;38063;53.210;6.504;2023-04-25T06:08:10;4.80;99.90
52058;DHT22;38063;53.210;6.504;2023-04-25T06:10:36;4.80;99.90
52058;DHT22;38063;53.210;6.504;2023-04-25T06:13:03;4.80;99.90
52058;DHT22;38063;53.210;6.504;2023-04-25T06:15:29;4.90;99.90
52058;DHT22;38063;53.210;6.504;2023-04-25T06:17:55;4.90;99.90
52058;DHT22;38063;53.210;6.504;2023-04-25T06:20:21;5.00;99.90
52058;DHT22;38063;53.210;6.504;2023-04-25T06:22:49;5.20;99.90
52058;DHT22;38063;53.210;6.504;2023-04-25T06:25:16;5.50;99.90
52058;DHT22;38063;53.210;6.504;2023-04-25T06:27:41;5.80;99.90
52058;DHT22;38063;53.210;6.504;2023-04-25T06:30:07;6.10;99.90
52058;DHT22;38063;53.210;6.504;2023-04-25T06:32:33;6.30;99.90
52058;DHT22;38063;53.210;6.504;2023-04-25T06:35:00;6.50;99.90
52058;DHT22;38063;53.210;6.504;2023-04-25T06:37:25;6.70;99.90
52058;DHT22;38063;53.210;6.504;2023-04-25T06:39:51;6.80;99.90
52058;DHT22;38063;53.210;6.504;2023-04-25T06:42:17;6.90;99.90
52058;DHT22;38063;53.210;6.504;2023-04-25T06:44:42;7.00;99.90
52058;DHT22;38063;53.210;6.504;2023-04-25T06:47:08;7.00;99.90
52058;DHT22;38063;53.210;6.504;2023-04-25T06:49:34;7.00;99.90
52058;DHT22;38063;53.210;6.504;2023-04-25T06:51:59;6.90;99.90
52058;DHT22;38063;53.210;6.504;2023-04-25T06:54:25;6.80;99.90
52058;DHT22;38063;53.210;6.504;2023-04-25T06:56:53;6.60;99.90
52058;DHT22;38063;53.210;6.504;2023-04-25T06:59:19;6.50;99.90
52058;DHT22;38063;53.210;6.504;2023-04-25T07:01:44;6.40;99.90
52058;DHT22;38063;53.210;6.504;2023-04-25T07:04:10;6.40;99.90
52058;DHT22;38063;53.210;6.504;2023-04-25T07:06:36;6.50;99.90
52058;DHT22;38063;53.210;6.504;2023-04-25T07:09:08;6.50;99.90
52058;DHT22;38063;53.210;6.504;2023-04-25T07:11:34;7.10;99.90
52058;DHT22;38063;53.210;6.504;2023-04-25T07:13:59;6.70;99.90
52058;DHT22;38063;53.210;6.504;2023-04-25T07:16:26;6.80;99.90
52058;DHT22;38063;53.210;6.504;2023-04-25T07:18:51;6.80;99.90
52058;DHT22;38063;53.210;6.504;2023-04-25T07:21:17;7.00;99.90
52058;DHT22;38063;53.210;6.504;2023-04-25T07:23:42;7.00;99.90
52058;DHT22;38063;53.210;6.504;2023-04-25T07:26:08;7.00;99.90
52058;DHT22;38063;53.210;6.504;2023-04-25T07:28:34;7.00;99.90
52058;DHT22;38063;53.210;6.504;2023-04-25T07:30:59;7.10;99.90
52058;DHT22;38063;53.210;6.504;2023-04-25T07:33:25;8.00;99.90
52058;DHT22;38063;53.210;6.504;2023-04-25T07:35:52;7.30;99.90
52058;DHT22;38063;53.210;6.504;2023-04-25T07:38:17;8.20;99.90
52058;DHT22;38063;53.210;6.504;2023-04-25T07:40:43;7.80;99.90
52058;DHT22;38063;53.210;6.504;2023-04-25T07:43:08;7.40;99.90
52058;DHT22;38063;53.210;6.504;2023-04-25T07:45:34;7.40;99.90
52058;DHT22;38063;53.210;6.504;2023-04-25T07:48:00;7.30;99.90
52058;DHT22;38063;53.210;6.504;2023-04-25T07:50:26;7.20;99.90
52058;DHT22;38063;53.210;6.504;2023-04-25T07:52:51;7.20;99.90
52058;DHT22;38063;53.210;6.504;2023-04-25T07:55:17;7.10;99.90
52058;DHT22;38063;53.210;6.504;2023-04-25T07:57:43;7.90;99.90
52058;DHT22;38063;53.210;6.504;2023-04-25T08:00:09;7.30;99.90
52058;DHT22;38063;53.210;6.504;2023-04-25T08:02:35;7.60;99.90
52058;DHT22;38063;53.210;6.504;2023-04-25T08:05:02;7.70;99.90
52058;DHT22;38063;53.210;6.504;2023-04-25T08:07:27;7.70;99.90
52058;DHT22;38063;53.210;6.504;2023-04-25T08:09:54;7.40;99.90
52058;DHT22;38063;53.210;6.504;2023-04-25T08:12:20;6.90;99.90
52058;DHT22;38063;53.210;6.504;2023-04-25T08:14:45;6.50;99.90
52058;DHT22;38063;53.210;6.504;2023-04-25T08:17:11;6.10;99.90
52058;DHT22;38063;53.210;6.504;2023-04-25T08:19:37;5.90;99.90
52058;DHT22;38063;53.210;6.504;2023-04-25T08:22:03;5.70;99.90
52058;DHT22;38063;53.210;6.504;2023-04-25T08:24:29;5.70;99.90
52058;DHT22;38063;53.210;6.504;2023-04-25T08:26:54;5.70;99.90
52058;DHT22;38063;53.210;6.504;2023-04-25T08:29:20;5.80;99.90
52058;DHT22;38063;53.210;6.504;2023-04-25T08:31:46;5.80;99.90
52058;DHT22;38063;53.210;6.504;2023-04-25T08:34:13;5.80;99.90
52058;DHT22;38063;53.210;6.504;2023-04-25T08:36:39;5.90;99.90
52058;DHT22;38063;53.210;6.504;2023-04-25T08:39:04;6.00;99.90
52058;DHT22;38063;53.210;6.504;2023-04-25T08:41:30;6.20;99.90
52058;DHT22;38063;53.210;6.504;2023-04-25T08:43:56;6.40;99.90
52058;DHT22;38063;53.210;6.504;2023-04-25T08:46:24;6.60;99.90
52058;DHT22;38063;53.210;6.504;2023-04-25T08:48:53;6.80;99.90
52058;DHT22;38063;53.210;6.504;2023-04-25T08:51:22;7.00;99.90
52058;DHT22;38063;53.210;6.504;2023-04-25T08:53:51;7.10;99.90
52058;DHT22;38063;53.210;6.504;2023-04-25T08:56:17;7.20;99.90
52058;DHT22;38063;53.210;6.504;2023-04-25T08:58:48;7.30;99.90
52058;DHT22;38063;53.210;6.504;2023-04-25T09:01:14;7.40;99.90
52058;DHT22;38063;53.210;6.504;2023-04-25T09:03:40;7.60;99.90
52058;DHT22;38063;53.210;6.504;2023-04-25T09:06:07;7.80;99.90
52058;DHT22;38063;53.210;6.504;2023-04-25T09:08:33;8.20;99.90
52058;DHT22;38063;53.210;6.504;2023-04-25T09:11:00;8.70;99.90
52058;DHT22;38063;53.210;6.504;2023-04-25T09:13:27;9.10;99.90
52058;DHT22;38063;53.210;6.504;2023-04-25T09:15:57;9.40;99.90
52058;DHT22;38063;53.210;6.504;2023-04-25T09:18:30;9.80;99.90
52058;DHT22;38063;53.210;6.504;2023-04-25T09:21:08;10.00;99.90
52058;DHT22;38063;53.210;6.504;2023-04-25T09:23:48;10.30;99.90
52058;DHT22;38063;53.210;6.504;2023-04-25T09:26:15;10.10;99.90
52058;DHT22;38063;53.210;6.504;2023-04-25T09:28:42;10.20;99.90
52058;DHT22;38063;53.210;6.504;2023-04-25T09:31:10;9.30;99.90
52058;DHT22;38063;53.210;6.504;2023-04-25T09:33:37;8.80;99.90
52058;DHT22;38063;53.210;6.504;2023-04-25T09:36:04;8.40;99.90
52058;DHT22;38063;53.210;6.504;2023-04-25T09:38:31;8.50;99.90
52058;DHT22;38063;53.210;6.504;2023-04-25T09:40:58;8.70;99.90
52058;DHT22;38063;53.210;6.504;2023-04-25T09:43:25;9.10;99.90
52058;DHT22;38063;53.210;6.504;2023-04-25T09:45:53;9.50;99.90
52058;DHT22;38063;53.210;6.504;2023-04-25T09:48:22;9.80;99.90
52058;DHT22;38063;53.210;6.504;2023-04-25T09:51:10;9.90;99.90
52058;DHT22;38063;53.210;6.504;2023-04-25T09:53:41;9.60;99.90
52058;DHT22;38063;53.210;6.504;2023-04-25T09:56:08;9.40;99.90
52058;DHT22;38063;53.210;6.504;2023-04-25T09:58:35;9.10;99.90
52058;DHT22;38063;53.210;6.504;2023-04-25T10:01:06;9.20;99.90
52058;DHT22;38063;53.210;6.504;2023-04-25T10:03:35;9.40;99.90
52058;DHT22;38063;53.210;6.504;2023-04-25T10:06:07;9.70;99.90
52058;DHT22;38063;53.210;6.504;2023-04-25T10:08:35;10.00;99.90
52058;DHT22;38063;53.210;6.504;2023-04-25T10:11:07;10.40;99.90
52058;DHT22;38063;53.210;6.504;2023-04-25T10:13:34;10.80;99.90
52058;DHT22;38063;53.210;6.504;2023-04-25T10:16:03;11.10;99.90
52058;DHT22;38063;53.210;6.504;2023-04-25T10:18:30;10.90;99.90
52058;DHT22;38063;53.210;6.504;2023-04-25T10:20:58;10.60;99.90
52058;DHT22;38063;53.210;6.504;2023-04-25T10:23:25;10.50;99.90
52058;DHT22;38063;53.210;6.504;2023-04-25T10:25:52;10.20;99.90
52058;DHT22;38063;53.210;6.504;2023-04-25T10:28:18;9.80;99.90
52058;DHT22;38063;53.210;6.504;2023-04-25T10:31:01;10.00;99.90
52058;DHT22;38063;53.210;6.504;2023-04-25T10:33:38;10.10;99.90
52058;DHT22;38063;53.210;6.504;2023-04-25T10:36:19;9.90;99.90
52058;DHT22;38063;53.210;6.504;2023-04-25T10:38:47;9.70;99.90
52058;DHT22;38063;53.210;6.504;2023-04-25T10:41:13;10.00;99.90
52058;DHT22;38063;53.210;6.504;2023-04-25T10:43:43;9.90;99.90
52058;DHT22;38063;53.210;6.504;2023-04-25T10:46:28;9.30;99.90
52058;DHT22;38063;53.210;6.504;2023-04-25T10:48:58;9.00;99.90
52058;DHT22;38063;53.210;6.504;2023-04-25T10:51:29;8.80;99.90
52058;DHT22;38063;53.210;6.504;2023-04-25T10:54:02;8.70;99.90
52058;DHT22;38063;53.210;6.504;2023-04-25T10:56:38;8.70;99.90
52058;DHT22;38063;53.210;6.504;2023-04-25T10:59:17;9.10;99.90
52058;DHT22;38063;53.210;6.504;2023-04-25T11:01:48;9.10;99.90
52058;DHT22;38063;53.210;6.504;2023-04-25T11:04:33;9.50;99.90
52058;DHT22;38063;53.210;6.504;2023-04-25T11:09:32;10.10;99.90
52058;DHT22;38063;53.210;6.504;2023-04-25T11:11:59;10.30;99.90
52058;DHT22;38063;53.210;6.504;2023-04-25T11:14:26;10.30;99.90
52058;DHT22;38063;53.210;6.504;2023-04-25T11:16:59;10.40;99.90
52058;DHT22;38063;53.210;6.504;2023-04-25T11:19:26;10.50;99.90
52058;DHT22;38063;53.210;6.504;2023-04-25T11:21:56;10.40;99.90
52058;DHT22;38063;53.210;6.504;2023-04-25T11:24:32;10.50;99.90
52058;DHT22;38063;53.210;6.504;2023-04-25T11:27:01;10.80;99.90
52058;DHT22;38063;53.210;6.504;2023-04-25T11:29:32;11.00;99.90
52058;DHT22;38063;53.210;6.504;2023-04-25T11:31:58;11.10;99.90
52058;DHT22;38063;53.210;6.504;2023-04-25T11:34:25;11.10;99.90
52058;DHT22;38063;53.210;6.504;2023-04-25T11:36:51;11.10;99.90
52058;DHT22;38063;53.210;6.504;2023-04-25T11:39:20;11.10;99.90
52058;DHT22;38063;53.210;6.504;2023-04-25T11:41:47;11.20;99.90
52058;DHT22;38063;53.210;6.504;2023-04-25T11:44:15;11.10;99.90
52058;DHT22;38063;53.210;6.504;2023-04-25T11:46:42;10.90;99.90
52058;DHT22;38063;53.210;6.504;2023-04-25T11:49:08;10.80;99.90
52058;DHT22;38063;53.210;6.504;2023-04-25T11:51:45;10.50;99.90
52058;DHT22;38063;53.210;6.504;2023-04-25T11:54:11;10.40;99.90
52058;DHT22;38063;53.210;6.504;2023-04-25T11:56:40;10.30;99.90
52058;DHT22;38063;53.210;6.504;2023-04-25T11:59:06;10.20;99.90
52058;DHT22;38063;53.210;6.504;2023-04-25T12:01:33;10.10;99.90
52058;DHT22;38063;53.210;6.504;2023-04-25T12:04:14;10.10;99.90
52058;DHT22;38063;53.210;6.504;2023-04-25T12:06:42;10.10;99.90
52058;DHT22;38063;53.210;6.504;2023-04-25T12:09:11;9.80;99.90
52058;DHT22;38063;53.210;6.504;2023-04-25T12:11:46;9.60;99.90
52058;DHT22;38063;53.210;6.504;2023-04-25T12:14:23;9.50;99.90
52058;DHT22;38063;53.210;6.504;2023-04-25T12:16:50;9.50;99.90
52058;DHT22;38063;53.210;6.504;2023-04-25T12:19:21;9.40;99.90
52058;DHT22;38063;53.210;6.504;2023-04-25T12:21:47;9.40;99.90
52058;DHT22;38063;53.210;6.504;2023-04-25T12:24:17;9.50;99.90
52058;DHT22;38063;53.210;6.504;2023-04-25T12:26:57;9.90;99.90
52058;DHT22;38063;53.210;6.504;2023-04-25T12:29:25;10.30;99.90
52058;DHT22;38063;53.210;6.504;2023-04-25T12:31:52;10.60;99.90
52058;DHT22;38063;53.210;6.504;2023-04-25T12:34:19;10.50;99.90
52058;DHT22;38063;53.210;6.504;2023-04-25T12:36:46;10.20;99.90
52058;DHT22;38063;53.210;6.504;2023-04-25T12:39:18;10.10;99.90
52058;DHT22;38063;53.210;6.504;2023-04-25T12:41:45;10.00;99.90
52058;DHT22;38063;53.210;6.504;2023-04-25T12:44:12;10.10;99.90
52058;DHT22;38063;53.210;6.504;2023-04-25T12:46:38;10.20;99.90
52058;DHT22;38063;53.210;6.504;2023-04-25T12:49:04;10.30;99.90
52058;DHT22;38063;53.210;6.504;2023-04-25T12:51:31;10.50;99.90
52058;DHT22;38063;53.210;6.504;2023-04-25T12:53:58;10.90;99.70
52058;DHT22;38063;53.210;6.504;2023-04-25T12:56:26;10.90;99.20
52058;DHT22;38063;53.210;6.504;2023-04-25T12:58:52;11.00;98.90
52058;DHT22;38063;53.210;6.504;2023-04-25T13:01:17;10.90;99.20
52058;DHT22;38063;53.210;6.504;2023-04-25T13:03:43;10.90;99.80
52058;DHT22;38063;53.210;6.504;2023-04-25T13:06:09;10.80;99.90
52058;DHT22;38063;53.210;6.504;2023-04-25T13:08:34;10.60;99.90
52058;DHT22;38063;53.210;6.504;2023-04-25T13:11:02;10.30;99.90
52058;DHT22;38063;53.210;6.504;2023-04-25T13:13:29;9.90;99.90
52058;DHT22;38063;53.210;6.504;2023-04-25T13:15:55;9.80;99.90
52058;DHT22;38063;53.210;6.504;2023-04-25T13:18:21;9.70;99.90
52058;DHT22;38063;53.210;6.504;2023-04-25T13:20:46;9.40;99.90
52058;DHT22;38063;53.210;6.504;2023-04-25T13:23:12;9.50;99.90
52058;DHT22;38063;53.210;6.504;2023-04-25T13:25:38;9.80;99.90
52058;DHT22;38063;53.210;6.504;2023-04-25T13:28:03;10.00;99.90
52058;DHT22;38063;53.210;6.504;2023-04-25T13:30:30;10.10;99.90
52058;DHT22;38063;53.210;6.504;2023-04-25T13:32:55;10.20;99.90
52058;DHT22;38063;53.210;6.504;2023-04-25T13:35:22;10.20;99.90
52058;DHT22;38063;53.210;6.504;2023-04-25T13:37:48;10.20;99.90
52058;DHT22;38063;53.210;6.504;2023-04-25T13:40:13;10.20;99.90
52058;DHT22;38063;53.210;6.504;2023-04-25T13:42:39;10.30;99.90
52058;DHT22;38063;53.210;6.504;2023-04-25T13:45:06;10.40;99.90
52058;DHT22;38063;53.210;6.504;2023-04-25T13:47:32;10.50;99.60
52058;DHT22;38063;53.210;6.504;2023-04-25T13:49:58;10.60;99.30
52058;DHT22;38063;53.210;6.504;2023-04-25T13:52:25;10.70;98.70
52058;DHT22;38063;53.210;6.504;2023-04-25T13:54:51;10.70;98.40
52058;DHT22;38063;53.210;6.504;2023-04-25T13:57:17;10.70;98.60
52058;DHT22;38063;53.210;6.504;2023-04-25T13:59:43;10.60;99.00
52058;DHT22;38063;53.210;6.504;2023-04-25T14:02:08;10.40;99.70
52058;DHT22;38063;53.210;6.504;2023-04-25T14:04:34;10.10;99.90
52058;DHT22;38063;53.210;6.504;2023-04-25T14:07:02;10.00;99.90
52058;DHT22;38063;53.210;6.504;2023-04-25T14:09:28;9.90;99.90
52058;DHT22;38063;53.210;6.504;2023-04-25T14:11:54;10.20;99.90
52058;DHT22;38063;53.210;6.504;2023-04-25T14:14:21;10.30;99.90
52058;DHT22;38063;53.210;6.504;2023-04-25T14:16:47;10.30;99.90
52058;DHT22;38063;53.210;6.504;2023-04-25T14:19:20;10.20;99.90
52058;DHT22;38063;53.210;6.504;2023-04-25T14:21:46;9.90;99.30
52058;DHT22;38063;53.210;6.504;2023-04-25T14:24:14;9.80;99.70
52058;DHT22;38063;53.210;6.504;2023-04-25T14:26:39;9.90;99.30
52058;DHT22;38063;53.210;6.504;2023-04-25T14:29:06;10.00;99.70
52058;DHT22;38063;53.210;6.504;2023-04-25T14:31:33;10.10;99.60
52058;DHT22;38063;53.210;6.504;2023-04-25T14:33:58;10.00;99.40
52058;DHT22;38063;53.210;6.504;2023-04-25T14:36:24;10.00;99.30
52058;DHT22;38063;53.210;6.504;2023-04-25T14:38:52;10.00;99.30
52058;DHT22;38063;53.210;6.504;2023-04-25T14:41:17;10.00;99.30
52058;DHT22;38063;53.210;6.504;2023-04-25T14:43:43;9.70;99.90
52058;DHT22;38063;53.210;6.504;2023-04-25T14:46:10;9.90;99.90
52058;DHT22;38063;53.210;6.504;2023-04-25T14:48:36;9.60;99.90
52058;DHT22;38063;53.210;6.504;2023-04-25T14:51:02;9.30;99.90
52058;DHT22;38063;53.210;6.504;2023-04-25T14:53:28;9.10;99.90
52058;DHT22;38063;53.210;6.504;2023-04-25T14:55:54;9.00;99.90
52058;DHT22;38063;53.210;6.504;2023-04-25T14:58:19;9.00;99.90
52058;DHT22;38063;53.210;6.504;2023-04-25T15:00:46;9.00;99.90
52058;DHT22;38063;53.210;6.504;2023-04-25T15:03:12;9.10;99.90
52058;DHT22;38063;53.210;6.504;2023-04-25T15:05:39;9.20;99.90
52058;DHT22;38063;53.210;6.504;2023-04-25T15:08:05;9.30;99.90
52058;DHT22;38063;53.210;6.504;2023-04-25T15:10:31;9.30;99.90
52058;DHT22;38063;53.210;6.504;2023-04-25T15:12:57;9.40;99.90
52058;DHT22;38063;53.210;6.504;2023-04-25T15:15:22;9.40;99.90
52058;DHT22;38063;53.210;6.504;2023-04-25T15:17:49;9.40;99.90
52058;DHT22;38063;53.210;6.504;2023-04-25T15:20:14;9.30;99.90
52058;DHT22;38063;53.210;6.504;2023-04-25T15:22:41;9.10;99.90
52058;DHT22;38063;53.210;6.504;2023-04-25T15:25:08;8.80;99.90
52058;DHT22;38063;53.210;6.504;2023-04-25T15:27:37;8.60;99.90
52058;DHT22;38063;53.210;6.504;2023-04-25T15:30:10;8.50;99.90
52058;DHT22;38063;53.210;6.504;2023-04-25T15:32:41;8.40;99.90
52058;DHT22;38063;53.210;6.504;2023-04-25T15:35:07;8.20;99.90
52058;DHT22;38063;53.210;6.504;2023-04-25T15:37:34;8.20;99.90
52058;DHT22;38063;53.210;6.504;2023-04-25T15:40:06;8.20;99.90
52058;DHT22;38063;53.210;6.504;2023-04-25T15:42:40;8.30;99.90